sensor_id;sensor_type;location;lat;lon;timestamp;P1;durP1;ratioP1;P2;durP2;ratioP2
14611;SDS011;7392;52.078;11.650;2022-07-05T00:01:46;0.37;;;0.37;;
14611;SDS011;7392;52.078;11.650;2022-07-05T00:04:14;0.40;;;0.40;;
14611;SDS011;7392;52.078;11.650;2022-07-05T00:06:41;0.10;;;0.10;;
14611;SDS011;7392;52.078;11.650;2022-07-05T00:09:23;0.53;;;0.27;;
14611;SDS011;7392;52.078;11.650;2022-07-05T00:11:51;0.50;;;0.37;;
14611;SDS011;7392;52.078;11.650;2022-07-05T00:14:20;0.10;;;0.10;;
14611;SDS011;7392;52.078;11.650;2022-07-05T00:16:49;0.27;;;0.27;;
14611;SDS011;7392;52.078;11.650;2022-07-05T00:19:17;0.20;;;0.20;;
14611;SDS011;7392;52.078;11.650;2022-07-05T00:21:45;0.33;;;0.33;;
14611;SDS011;7392;52.078;11.650;2022-07-05T00:24:12;0.33;;;0.33;;
14611;SDS011;7392;52.078;11.650;2022-07-05T00:26:40;0.20;;;0.20;;
14611;SDS011;7392;52.078;11.650;2022-07-05T00:29:08;0.30;;;0.30;;
14611;SDS011;7392;52.078;11.650;2022-07-05T00:31:37;0.20;;;0.20;;
14611;SDS011;7392;52.078;11.650;2022-07-05T00:34:05;0.40;;;0.40;;
14611;SDS011;7392;52.078;11.650;2022-07-05T00:36:33;0.20;;;0.20;;
14611;SDS011;7392;52.078;11.650;2022-07-05T00:39:01;0.30;;;0.30;;
14611;SDS011;7392;52.078;11.650;2022-07-05T00:41:29;0.30;;;0.30;;
14611;SDS011;7392;52.078;11.650;2022-07-05T00:43:58;0.40;;;0.30;;
14611;SDS011;7392;52.078;11.650;2022-07-05T00:46:27;0.20;;;0.20;;
14611;SDS011;7392;52.078;11.650;2022-07-05T00:48:57;0.40;;;0.40;;
14611;SDS011;7392;52.078;11.650;2022-07-05T00:51:28;0.20;;;0.20;;
14611;SDS011;7392;52.078;11.650;2022-07-05T00:53:58;0.23;;;0.23;;
14611;SDS011;7392;52.078;11.650;2022-07-05T00:56:27;1.20;;;0.50;;
14611;SDS011;7392;52.078;11.650;2022-07-05T00:58:55;0.33;;;0.33;;
14611;SDS011;7392;52.078;11.650;2022-07-05T01:01:23;0.20;;;0.20;;
14611;SDS011;7392;52.078;11.650;2022-07-05T01:03:54;0.63;;;0.30;;
14611;SDS011;7392;52.078;11.650;2022-07-05T01:06:23;0.43;;;0.40;;
14611;SDS011;7392;52.078;11.650;2022-07-05T01:11:42;0.17;;;0.17;;
14611;SDS011;7392;52.078;11.650;2022-07-05T01:14:11;0.87;;;0.47;;
14611;SDS011;7392;52.078;11.650;2022-07-05T01:16:42;0.30;;;0.30;;
14611;SDS011;7392;52.078;11.650;2022-07-05T01:19:11;0.50;;;0.40;;
14611;SDS011;7392;52.078;11.650;2022-07-05T01:21:42;0.40;;;0.40;;
14611;SDS011;7392;52.078;11.650;2022-07-05T01:24:12;0.20;;;0.20;;
14611;SDS011;7392;52.078;11.650;2022-07-05T01:26:45;0.30;;;0.30;;
14611;SDS011;7392;52.078;11.650;2022-07-05T01:29:14;0.33;;;0.33;;
14611;SDS011;7392;52.078;11.650;2022-07-05T01:31:42;0.40;;;0.40;;
14611;SDS011;7392;52.078;11.650;2022-07-05T01:34:11;0.40;;;0.37;;
14611;SDS011;7392;52.078;11.650;2022-07-05T01:36:39;0.57;;;0.40;;
14611;SDS011;7392;52.078;11.650;2022-07-05T01:39:08;0.30;;;0.30;;
14611;SDS011;7392;52.078;11.650;2022-07-05T01:41:37;0.37;;;0.37;;
14611;SDS011;7392;52.078;11.650;2022-07-05T01:44:05;0.40;;;0.40;;
14611;SDS011;7392;52.078;11.650;2022-07-05T01:46:33;0.33;;;0.30;;
14611;SDS011;7392;52.078;11.650;2022-07-05T01:49:05;0.40;;;0.40;;
14611;SDS011;7392;52.078;11.650;2022-07-05T01:51:38;0.50;;;0.33;;
14611;SDS011;7392;52.078;11.650;2022-07-05T01:54:09;0.27;;;0.27;;
14611;SDS011;7392;52.078;11.650;2022-07-05T01:56:38;0.43;;;0.43;;
14611;SDS011;7392;52.078;11.650;2022-07-05T01:59:06;0.47;;;0.40;;
14611;SDS011;7392;52.078;11.650;2022-07-05T02:01:35;0.43;;;0.30;;
14611;SDS011;7392;52.078;11.650;2022-07-05T02:04:05;0.50;;;0.40;;
14611;SDS011;7392;52.078;11.650;2022-07-05T02:06:35;0.23;;;0.23;;
14611;SDS011;7392;52.078;11.650;2022-07-05T02:09:05;0.20;;;0.20;;
14611;SDS011;7392;52.078;11.650;2022-07-05T02:11:33;0.30;;;0.30;;
14611;SDS011;7392;52.078;11.650;2022-07-05T02:14:04;0.40;;;0.40;;
14611;SDS011;7392;52.078;11.650;2022-07-05T02:16:35;0.40;;;0.40;;
14611;SDS011;7392;52.078;11.650;2022-07-05T02:19:03;0.30;;;0.30;;
14611;SDS011;7392;52.078;11.650;2022-07-05T02:21:36;0.60;;;0.47;;
14611;SDS011;7392;52.078;11.650;2022-07-05T02:24:07;0.40;;;0.40;;
14611;SDS011;7392;52.078;11.650;2022-07-05T02:26:43;0.40;;;0.40;;
14611;SDS011;7392;52.078;11.650;2022-07-05T02:29:13;0.20;;;0.20;;
14611;SDS011;7392;52.078;11.650;2022-07-05T02:31:43;0.30;;;0.30;;
14611;SDS011;7392;52.078;11.650;2022-07-05T02:34:11;1.00;;;0.47;;
14611;SDS011;7392;52.078;11.650;2022-07-05T02:36:40;0.57;;;0.50;;
14611;SDS011;7392;52.078;11.650;2022-07-05T02:39:10;0.50;;;0.50;;
14611;SDS011;7392;52.078;11.650;2022-07-05T02:41:38;0.60;;;0.60;;
14611;SDS011;7392;52.078;11.650;2022-07-05T02:44:06;0.63;;;0.60;;
14611;SDS011;7392;52.078;11.650;2022-07-05T02:46:36;0.50;;;0.40;;
14611;SDS011;7392;52.078;11.650;2022-07-05T02:49:04;0.33;;;0.33;;
14611;SDS011;7392;52.078;11.650;2022-07-05T02:51:34;0.40;;;0.40;;
14611;SDS011;7392;52.078;11.650;2022-07-05T02:54:04;0.50;;;0.50;;
14611;SDS011;7392;52.078;11.650;2022-07-05T02:56:34;0.37;;;0.37;;
14611;SDS011;7392;52.078;11.650;2022-07-05T02:59:03;0.43;;;0.43;;
14611;SDS011;7392;52.078;11.650;2022-07-05T03:01:36;0.30;;;0.30;;
14611;SDS011;7392;52.078;11.650;2022-07-05T03:04:08;0.40;;;0.40;;
14611;SDS011;7392;52.078;11.650;2022-07-05T03:06:40;0.50;;;0.50;;
14611;SDS011;7392;52.078;11.650;2022-07-05T03:09:14;0.63;;;0.50;;
14611;SDS011;7392;52.078;11.650;2022-07-05T03:11:43;0.40;;;0.40;;
14611;SDS011;7392;52.078;11.650;2022-07-05T03:14:11;0.50;;;0.40;;
14611;SDS011;7392;52.078;11.650;2022-07-05T03:16:40;0.40;;;0.40;;
14611;SDS011;7392;52.078;11.650;2022-07-05T03:19:12;0.40;;;0.40;;
14611;SDS011;7392;52.078;11.650;2022-07-05T03:21:40;0.50;;;0.50;;
14611;SDS011;7392;52.078;11.650;2022-07-05T03:24:09;0.40;;;0.40;;
14611;SDS011;7392;52.078;11.650;2022-07-05T03:26:39;0.63;;;0.50;;
14611;SDS011;7392;52.078;11.650;2022-07-05T03:29:07;0.27;;;0.27;;
14611;SDS011;7392;52.078;11.650;2022-07-05T03:31:36;0.93;;;0.67;;
14611;SDS011;7392;52.078;11.650;2022-07-05T03:34:07;0.43;;;0.43;;
14611;SDS011;7392;52.078;11.650;2022-07-05T03:36:35;0.40;;;0.40;;
14611;SDS011;7392;52.078;11.650;2022-07-05T03:39:08;0.53;;;0.43;;
14611;SDS011;7392;52.078;11.650;2022-07-05T03:41:37;1.00;;;0.70;;
14611;SDS011;7392;52.078;11.650;2022-07-05T03:44:06;0.60;;;0.50;;
14611;SDS011;7392;52.078;11.650;2022-07-05T03:46:34;1.13;;;0.67;;
14611;SDS011;7392;52.078;11.650;2022-07-05T03:49:02;0.43;;;0.43;;
14611;SDS011;7392;52.078;11.650;2022-07-05T03:51:32;0.70;;;0.50;;
14611;SDS011;7392;52.078;11.650;2022-07-05T03:54:02;0.70;;;0.60;;
14611;SDS011;7392;52.078;11.650;2022-07-05T03:56:30;0.63;;;0.50;;
14611;SDS011;7392;52.078;11.650;2022-07-05T03:59:03;0.70;;;0.60;;
14611;SDS011;7392;52.078;11.650;2022-07-05T04:01:31;0.73;;;0.70;;
14611;SDS011;7392;52.078;11.650;2022-07-05T04:04:00;0.53;;;0.53;;
14611;SDS011;7392;52.078;11.650;2022-07-05T04:06:30;0.37;;;0.37;;
14611;SDS011;7392;52.078;11.650;2022-07-05T04:09:02;0.50;;;0.50;;
14611;SDS011;7392;52.078;11.650;2022-07-05T04:11:30;1.30;;;0.73;;
14611;SDS011;7392;52.078;11.650;2022-07-05T04:13:58;0.47;;;0.47;;
14611;SDS011;7392;52.078;11.650;2022-07-05T04:16:26;0.70;;;0.50;;
14611;SDS011;7392;52.078;11.650;2022-07-05T04:18:55;0.60;;;0.50;;
14611;SDS011;7392;52.078;11.650;2022-07-05T04:21:24;1.33;;;0.60;;
14611;SDS011;7392;52.078;11.650;2022-07-05T04:23:53;0.70;;;0.70;;
14611;SDS011;7392;52.078;11.650;2022-07-05T04:26:22;0.90;;;0.70;;
14611;SDS011;7392;52.078;11.650;2022-07-05T04:28:50;0.70;;;0.70;;
14611;SDS011;7392;52.078;11.650;2022-07-05T04:31:26;1.00;;;0.60;;
14611;SDS011;7392;52.078;11.650;2022-07-05T04:33:56;0.67;;;0.60;;
14611;SDS011;7392;52.078;11.650;2022-07-05T04:36:27;0.40;;;0.40;;
14611;SDS011;7392;52.078;11.650;2022-07-05T04:38:56;0.93;;;0.43;;
14611;SDS011;7392;52.078;11.650;2022-07-05T04:41:27;0.50;;;0.50;;
14611;SDS011;7392;52.078;11.650;2022-07-05T04:43:55;0.53;;;0.53;;
14611;SDS011;7392;52.078;11.650;2022-07-05T04:46:23;0.60;;;0.60;;
14611;SDS011;7392;52.078;11.650;2022-07-05T04:48:51;0.40;;;0.40;;
14611;SDS011;7392;52.078;11.650;2022-07-05T04:51:19;0.40;;;0.40;;
14611;SDS011;7392;52.078;11.650;2022-07-05T04:53:48;0.30;;;0.30;;
14611;SDS011;7392;52.078;11.650;2022-07-05T04:56:15;0.60;;;0.60;;
14611;SDS011;7392;52.078;11.650;2022-07-05T04:58:45;0.40;;;0.40;;
14611;SDS011;7392;52.078;11.650;2022-07-05T05:01:13;0.47;;;0.47;;
14611;SDS011;7392;52.078;11.650;2022-07-05T05:03:41;0.40;;;0.40;;
14611;SDS011;7392;52.078;11.650;2022-07-05T05:06:08;0.30;;;0.30;;
14611;SDS011;7392;52.078;11.650;2022-07-05T05:08:36;0.27;;;0.27;;
14611;SDS011;7392;52.078;11.650;2022-07-05T05:11:04;0.40;;;0.40;;
14611;SDS011;7392;52.078;11.650;2022-07-05T05:13:32;0.30;;;0.30;;
14611;SDS011;7392;52.078;11.650;2022-07-05T05:16:02;0.30;;;0.30;;
14611;SDS011;7392;52.078;11.650;2022-07-05T05:18:30;0.50;;;0.50;;
14611;SDS011;7392;52.078;11.650;2022-07-05T05:20:58;0.30;;;0.30;;
14611;SDS011;7392;52.078;11.650;2022-07-05T05:23:25;0.40;;;0.40;;
14611;SDS011;7392;52.078;11.650;2022-07-05T05:25:53;0.77;;;0.50;;
14611;SDS011;7392;52.078;11.650;2022-07-05T05:28:21;0.33;;;0.33;;
14611;SDS011;7392;52.078;11.650;2022-07-05T05:30:49;0.27;;;0.27;;
14611;SDS011;7392;52.078;11.650;2022-07-05T05:33:18;0.20;;;0.20;;
14611;SDS011;7392;52.078;11.650;2022-07-05T05:35:52;0.40;;;0.40;;
14611;SDS011;7392;52.078;11.650;2022-07-05T05:38:20;0.20;;;0.20;;
14611;SDS011;7392;52.078;11.650;2022-07-05T05:40:48;0.33;;;0.30;;
14611;SDS011;7392;52.078;11.650;2022-07-05T05:43:16;0.30;;;0.30;;
14611;SDS011;7392;52.078;11.650;2022-07-05T05:45:44;0.27;;;0.27;;
14611;SDS011;7392;52.078;11.650;2022-07-05T05:48:12;0.30;;;0.30;;
14611;SDS011;7392;52.078;11.650;2022-07-05T05:50:41;0.20;;;0.20;;
14611;SDS011;7392;52.078;11.650;2022-07-05T05:53:09;0.70;;;0.30;;
14611;SDS011;7392;52.078;11.650;2022-07-05T05:55:37;0.40;;;0.40;;
14611;SDS011;7392;52.078;11.650;2022-07-05T05:58:11;0.20;;;0.20;;
14611;SDS011;7392;52.078;11.650;2022-07-05T06:00:39;0.30;;;0.30;;
14611;SDS011;7392;52.078;11.650;2022-07-05T06:03:07;0.30;;;0.30;;
14611;SDS011;7392;52.078;11.650;2022-07-05T06:05:35;1.07;;;0.40;;
14611;SDS011;7392;52.078;11.650;2022-07-05T06:08:04;0.20;;;0.20;;
14611;SDS011;7392;52.078;11.650;2022-07-05T06:10:32;0.53;;;0.50;;
14611;SDS011;7392;52.078;11.650;2022-07-05T06:13:02;0.33;;;0.30;;
14611;SDS011;7392;52.078;11.650;2022-07-05T06:15:31;0.43;;;0.30;;
14611;SDS011;7392;52.078;11.650;2022-07-05T06:17:59;0.33;;;0.33;;
14611;SDS011;7392;52.078;11.650;2022-07-05T06:20:28;0.20;;;0.20;;
14611;SDS011;7392;52.078;11.650;2022-07-05T06:22:58;0.30;;;0.30;;
14611;SDS011;7392;52.078;11.650;2022-07-05T06:25:29;0.20;;;0.20;;
14611;SDS011;7392;52.078;11.650;2022-07-05T06:27:59;0.33;;;0.33;;
14611;SDS011;7392;52.078;11.650;2022-07-05T06:30:28;0.73;;;0.33;;
14611;SDS011;7392;52.078;11.650;2022-07-05T06:32:57;0.30;;;0.30;;
14611;SDS011;7392;52.078;11.650;2022-07-05T06:35:25;0.50;;;0.33;;
14611;SDS011;7392;52.078;11.650;2022-07-05T06:37:55;0.50;;;0.50;;
14611;SDS011;7392;52.078;11.650;2022-07-05T06:40:24;0.63;;;0.40;;
14611;SDS011;7392;52.078;11.650;2022-07-05T06:42:55;1.03;;;0.77;;
14611;SDS011;7392;52.078;11.650;2022-07-05T06:45:32;0.60;;;0.50;;
14611;SDS011;7392;52.078;11.650;2022-07-05T06:48:00;1.10;;;0.60;;
14611;SDS011;7392;52.078;11.650;2022-07-05T06:50:30;0.60;;;0.53;;
14611;SDS011;7392;52.078;11.650;2022-07-05T06:52:59;0.40;;;0.40;;
14611;SDS011;7392;52.078;11.650;2022-07-05T06:55:27;0.37;;;0.30;;
14611;SDS011;7392;52.078;11.650;2022-07-05T06:57:57;0.30;;;0.30;;
14611;SDS011;7392;52.078;11.650;2022-07-05T07:00:43;0.37;;;0.27;;
14611;SDS011;7392;52.078;11.650;2022-07-05T07:03:31;0.27;;;0.27;;
14611;SDS011;7392;52.078;11.650;2022-07-05T07:06:20;0.53;;;0.40;;
14611;SDS011;7392;52.078;11.650;2022-07-05T07:08:48;0.33;;;0.30;;
14611;SDS011;7392;52.078;11.650;2022-07-05T07:11:33;0.60;;;0.33;;
14611;SDS011;7392;52.078;11.650;2022-07-05T07:14:02;0.50;;;0.47;;
14611;SDS011;7392;52.078;11.650;2022-07-05T07:16:30;0.60;;;0.33;;
14611;SDS011;7392;52.078;11.650;2022-07-05T07:18:59;0.20;;;0.20;;
14611;SDS011;7392;52.078;11.650;2022-07-05T07:21:37;0.53;;;0.37;;
14611;SDS011;7392;52.078;11.650;2022-07-05T07:24:06;0.10;;;0.10;;
14611;SDS011;7392;52.078;11.650;2022-07-05T07:26:35;0.20;;;0.20;;
14611;SDS011;7392;52.078;11.650;2022-07-05T07:29:18;0.30;;;0.30;;
14611;SDS011;7392;52.078;11.650;2022-07-05T07:31:46;0.30;;;0.30;;
14611;SDS011;7392;52.078;11.650;2022-07-05T07:34:14;0.20;;;0.20;;
14611;SDS011;7392;52.078;11.650;2022-07-05T07:36:42;0.20;;;0.20;;
14611;SDS011;7392;52.078;11.650;2022-07-05T07:39:10;0.93;;;0.33;;
14611;SDS011;7392;52.078;11.650;2022-07-05T07:41:38;0.70;;;0.60;;
14611;SDS011;7392;52.078;11.650;2022-07-05T07:44:06;0.20;;;0.20;;
14611;SDS011;7392;52.078;11.650;2022-07-05T07:46:36;0.20;;;0.20;;
14611;SDS011;7392;52.078;11.650;2022-07-05T07:49:05;0.50;;;0.40;;
14611;SDS011;7392;52.078;11.650;2022-07-05T07:51:34;0.30;;;0.30;;
14611;SDS011;7392;52.078;11.650;2022-07-05T07:54:02;0.70;;;0.50;;
14611;SDS011;7392;52.078;11.650;2022-07-05T07:56:30;0.77;;;0.47;;
14611;SDS011;7392;52.078;11.650;2022-07-05T07:58:58;0.30;;;0.30;;
14611;SDS011;7392;52.078;11.650;2022-07-05T08:01:26;0.30;;;0.20;;
14611;SDS011;7392;52.078;11.650;2022-07-05T08:03:55;1.20;;;0.60;;
14611;SDS011;7392;52.078;11.650;2022-07-05T08:06:23;1.20;;;0.70;;
14611;SDS011;7392;52.078;11.650;2022-07-05T08:08:51;0.93;;;0.60;;
14611;SDS011;7392;52.078;11.650;2022-07-05T08:11:19;1.00;;;0.80;;
14611;SDS011;7392;52.078;11.650;2022-07-05T08:13:47;0.67;;;0.50;;
14611;SDS011;7392;52.078;11.650;2022-07-05T08:16:15;0.73;;;0.53;;
14611;SDS011;7392;52.078;11.650;2022-07-05T08:18:43;1.00;;;0.67;;
14611;SDS011;7392;52.078;11.650;2022-07-05T08:21:29;1.07;;;0.80;;
14611;SDS011;7392;52.078;11.650;2022-07-05T08:24:02;1.10;;;0.70;;
14611;SDS011;7392;52.078;11.650;2022-07-05T08:26:32;0.70;;;0.70;;
14611;SDS011;7392;52.078;11.650;2022-07-05T08:29:01;1.70;;;0.90;;
14611;SDS011;7392;52.078;11.650;2022-07-05T08:31:37;1.07;;;0.77;;
14611;SDS011;7392;52.078;11.650;2022-07-05T08:34:06;0.90;;;0.60;;
14611;SDS011;7392;52.078;11.650;2022-07-05T08:36:36;0.40;;;0.40;;
14611;SDS011;7392;52.078;11.650;2022-07-05T08:39:05;0.93;;;0.60;;
14611;SDS011;7392;52.078;11.650;2022-07-05T08:41:35;1.30;;;0.80;;
14611;SDS011;7392;52.078;11.650;2022-07-05T08:44:04;1.27;;;0.83;;
14611;SDS011;7392;52.078;11.650;2022-07-05T08:46:33;2.57;;;0.83;;
14611;SDS011;7392;52.078;11.650;2022-07-05T08:49:04;0.60;;;0.60;;
14611;SDS011;7392;52.078;11.650;2022-07-05T08:51:40;0.70;;;0.70;;
14611;SDS011;7392;52.078;11.650;2022-07-05T08:54:09;0.50;;;0.50;;
14611;SDS011;7392;52.078;11.650;2022-07-05T08:56:40;0.98;;;0.63;;
14611;SDS011;7392;52.078;11.650;2022-07-05T08:59:29;0.40;;;0.30;;
14611;SDS011;7392;52.078;11.650;2022-07-05T09:01:57;2.38;;;0.60;;
14611;SDS011;7392;52.078;11.650;2022-07-05T09:04:28;2.03;;;0.80;;
14611;SDS011;7392;52.078;11.650;2022-07-05T09:07:02;2.08;;;1.10;;
14611;SDS011;7392;52.078;11.650;2022-07-05T09:09:35;2.13;;;0.90;;
14611;SDS011;7392;52.078;11.650;2022-07-05T09:12:11;1.10;;;0.75;;
14611;SDS011;7392;52.078;11.650;2022-07-05T09:14:52;0.70;;;0.70;;
14611;SDS011;7392;52.078;11.650;2022-07-05T09:17:21;0.75;;;0.60;;
14611;SDS011;7392;52.078;11.650;2022-07-05T09:20:05;0.60;;;0.50;;
14611;SDS011;7392;52.078;11.650;2022-07-05T09:22:46;0.95;;;0.50;;
14611;SDS011;7392;52.078;11.650;2022-07-05T09:25:16;0.77;;;0.60;;
14611;SDS011;7392;52.078;11.650;2022-07-05T09:27:53;0.43;;;0.43;;
14611;SDS011;7392;52.078;11.650;2022-07-05T09:30:26;0.50;;;0.50;;
14611;SDS011;7392;52.078;11.650;2022-07-05T09:33:01;3.13;;;0.50;;
14611;SDS011;7392;52.078;11.650;2022-07-05T09:35:30;0.50;;;0.50;;
14611;SDS011;7392;52.078;11.650;2022-07-05T09:38:00;0.50;;;0.47;;
14611;SDS011;7392;52.078;11.650;2022-07-05T09:40:30;1.13;;;0.57;;
14611;SDS011;7392;52.078;11.650;2022-07-05T09:43:11;2.33;;;0.95;;
14611;SDS011;7392;52.078;11.650;2022-07-05T09:45:39;0.73;;;0.73;;
14611;SDS011;7392;52.078;11.650;2022-07-05T09:48:16;1.17;;;0.90;;
14611;SDS011;7392;52.078;11.650;2022-07-05T09:51:05;2.10;;;0.82;;
14611;SDS011;7392;52.078;11.650;2022-07-05T09:53:57;2.42;;;0.90;;
14611;SDS011;7392;52.078;11.650;2022-07-05T09:56:30;1.05;;;0.70;;
14611;SDS011;7392;52.078;11.650;2022-07-05T09:59:16;1.55;;;0.90;;
14611;SDS011;7392;52.078;11.650;2022-07-05T10:01:47;1.30;;;0.75;;
14611;SDS011;7392;52.078;11.650;2022-07-05T10:04:15;0.90;;;0.80;;
14611;SDS011;7392;52.078;11.650;2022-07-05T10:06:44;1.30;;;0.77;;
14611;SDS011;7392;52.078;11.650;2022-07-05T10:09:13;1.05;;;0.85;;
14611;SDS011;7392;52.078;11.650;2022-07-05T10:11:43;1.02;;;0.70;;
14611;SDS011;7392;52.078;11.650;2022-07-05T10:14:15;0.77;;;0.70;;
14611;SDS011;7392;52.078;11.650;2022-07-05T10:16:46;0.60;;;0.60;;
14611;SDS011;7392;52.078;11.650;2022-07-05T10:19:22;0.70;;;0.70;;
14611;SDS011;7392;52.078;11.650;2022-07-05T10:21:51;1.05;;;0.80;;
14611;SDS011;7392;52.078;11.650;2022-07-05T10:24:40;1.00;;;0.90;;
14611;SDS011;7392;52.078;11.650;2022-07-05T10:27:09;0.60;;;0.60;;
14611;SDS011;7392;52.078;11.650;2022-07-05T10:29:37;1.25;;;0.80;;
14611;SDS011;7392;52.078;11.650;2022-07-05T10:32:07;2.22;;;1.10;;
14611;SDS011;7392;52.078;11.650;2022-07-05T10:34:37;1.13;;;1.02;;
14611;SDS011;7392;52.078;11.650;2022-07-05T10:37:27;1.30;;;0.80;;
14611;SDS011;7392;52.078;11.650;2022-07-05T10:39:58;1.23;;;0.90;;
14611;SDS011;7392;52.078;11.650;2022-07-05T10:42:28;0.98;;;0.82;;
14611;SDS011;7392;52.078;11.650;2022-07-05T10:44:59;0.98;;;0.85;;
14611;SDS011;7392;52.078;11.650;2022-07-05T10:47:28;1.85;;;1.20;;
14611;SDS011;7392;52.078;11.650;2022-07-05T10:49:59;1.27;;;0.85;;
14611;SDS011;7392;52.078;11.650;2022-07-05T10:52:29;2.10;;;1.00;;
14611;SDS011;7392;52.078;11.650;2022-07-05T11:06:48;1.77;;;1.17;;
14611;SDS011;7392;52.078;11.650;2022-07-05T11:09:17;2.00;;;1.23;;
14611;SDS011;7392;52.078;11.650;2022-07-05T11:12:00;2.20;;;1.23;;
14611;SDS011;7392;52.078;11.650;2022-07-05T11:14:52;1.73;;;1.27;;
14611;SDS011;7392;52.078;11.650;2022-07-05T11:17:23;1.13;;;0.95;;
14611;SDS011;7392;52.078;11.650;2022-07-05T11:20:17;2.97;;;1.00;;
14611;SDS011;7392;52.078;11.650;2022-07-05T11:23:03;1.17;;;0.90;;
14611;SDS011;7392;52.078;11.650;2022-07-05T11:25:34;2.08;;;0.82;;
14611;SDS011;7392;52.078;11.650;2022-07-05T11:28:12;2.30;;;1.20;;
14611;SDS011;7392;52.078;11.650;2022-07-05T11:30:44;2.22;;;1.33;;
14611;SDS011;7392;52.078;11.650;2022-07-05T11:36:20;1.80;;;1.25;;
14611;SDS011;7392;52.078;11.650;2022-07-05T11:39:06;3.75;;;1.27;;
14611;SDS011;7392;52.078;11.650;2022-07-05T11:41:39;1.52;;;1.00;;
14611;SDS011;7392;52.078;11.650;2022-07-05T11:44:11;1.40;;;1.23;;
14611;SDS011;7392;52.078;11.650;2022-07-05T11:46:40;1.50;;;1.00;;
14611;SDS011;7392;52.078;11.650;2022-07-05T11:49:18;1.00;;;0.90;;
14611;SDS011;7392;52.078;11.650;2022-07-05T11:51:55;1.13;;;0.93;;
14611;SDS011;7392;52.078;11.650;2022-07-05T11:54:25;1.60;;;1.08;;
14611;SDS011;7392;52.078;11.650;2022-07-05T11:56:53;2.28;;;1.10;;
14611;SDS011;7392;52.078;11.650;2022-07-05T11:59:24;1.25;;;1.00;;
14611;SDS011;7392;52.078;11.650;2022-07-05T12:01:53;1.38;;;1.00;;
14611;SDS011;7392;52.078;11.650;2022-07-05T12:04:22;2.08;;;1.52;;
14611;SDS011;7392;52.078;11.650;2022-07-05T12:06:51;3.17;;;1.40;;
14611;SDS011;7392;52.078;11.650;2022-07-05T12:09:22;2.25;;;1.30;;
14611;SDS011;7392;52.078;11.650;2022-07-05T12:11:52;2.40;;;1.30;;
14611;SDS011;7392;52.078;11.650;2022-07-05T12:14:47;2.60;;;1.20;;
14611;SDS011;7392;52.078;11.650;2022-07-05T12:17:16;1.98;;;1.20;;
14611;SDS011;7392;52.078;11.650;2022-07-05T12:19:51;1.65;;;1.10;;
14611;SDS011;7392;52.078;11.650;2022-07-05T12:22:27;1.65;;;1.13;;
14611;SDS011;7392;52.078;11.650;2022-07-05T12:24:56;1.13;;;0.80;;
14611;SDS011;7392;52.078;11.650;2022-07-05T12:27:25;3.28;;;1.42;;
14611;SDS011;7392;52.078;11.650;2022-07-05T12:29:54;2.90;;;1.25;;
14611;SDS011;7392;52.078;11.650;2022-07-05T12:32:22;1.58;;;1.13;;
14611;SDS011;7392;52.078;11.650;2022-07-05T12:34:50;1.10;;;0.90;;
14611;SDS011;7392;52.078;11.650;2022-07-05T12:37:21;0.70;;;0.70;;
14611;SDS011;7392;52.078;11.650;2022-07-05T12:39:50;0.70;;;0.70;;
14611;SDS011;7392;52.078;11.650;2022-07-05T12:42:30;0.90;;;0.73;;
14611;SDS011;7392;52.078;11.650;2022-07-05T12:45:07;1.30;;;0.95;;
14611;SDS011;7392;52.078;11.650;2022-07-05T12:47:36;3.55;;;1.20;;
14611;SDS011;7392;52.078;11.650;2022-07-05T12:50:15;1.27;;;0.88;;
14611;SDS011;7392;52.078;11.650;2022-07-05T12:52:59;1.67;;;1.08;;
14611;SDS011;7392;52.078;11.650;2022-07-05T12:55:49;1.48;;;0.95;;
14611;SDS011;7392;52.078;11.650;2022-07-05T12:58:44;1.33;;;0.98;;
14611;SDS011;7392;52.078;11.650;2022-07-05T13:01:25;1.38;;;0.82;;
14611;SDS011;7392;52.078;11.650;2022-07-05T13:04:01;1.02;;;0.90;;
14611;SDS011;7392;52.078;11.650;2022-07-05T13:06:39;1.30;;;0.77;;
14611;SDS011;7392;52.078;11.650;2022-07-05T13:09:08;0.90;;;0.82;;
14611;SDS011;7392;52.078;11.650;2022-07-05T13:11:36;0.70;;;0.70;;
14611;SDS011;7392;52.078;11.650;2022-07-05T13:14:04;1.13;;;0.85;;
14611;SDS011;7392;52.078;11.650;2022-07-05T13:16:33;1.17;;;0.88;;
14611;SDS011;7392;52.078;11.650;2022-07-05T13:19:09;1.80;;;1.00;;
14611;SDS011;7392;52.078;11.650;2022-07-05T13:21:37;1.02;;;0.80;;
14611;SDS011;7392;52.078;11.650;2022-07-05T13:24:06;0.95;;;0.88;;
14611;SDS011;7392;52.078;11.650;2022-07-05T13:26:34;1.92;;;0.95;;
14611;SDS011;7392;52.078;11.650;2022-07-05T13:29:02;0.98;;;0.82;;
14611;SDS011;7392;52.078;11.650;2022-07-05T13:31:30;1.73;;;0.93;;
14611;SDS011;7392;52.078;11.650;2022-07-05T13:33:59;0.95;;;0.80;;
14611;SDS011;7392;52.078;11.650;2022-07-05T13:36:27;1.75;;;0.85;;
14611;SDS011;7392;52.078;11.650;2022-07-05T13:38:55;1.65;;;0.60;;
14611;SDS011;7392;52.078;11.650;2022-07-05T13:41:23;1.20;;;1.00;;
14611;SDS011;7392;52.078;11.650;2022-07-05T13:43:51;2.17;;;1.10;;
14611;SDS011;7392;52.078;11.650;2022-07-05T13:46:19;0.95;;;0.90;;
14611;SDS011;7392;52.078;11.650;2022-07-05T13:48:47;0.95;;;0.80;;
14611;SDS011;7392;52.078;11.650;2022-07-05T13:51:17;0.95;;;0.80;;
14611;SDS011;7392;52.078;11.650;2022-07-05T13:53:44;1.35;;;1.00;;
14611;SDS011;7392;52.078;11.650;2022-07-05T13:56:12;2.88;;;0.93;;
14611;SDS011;7392;52.078;11.650;2022-07-05T13:58:40;1.85;;;1.02;;
14611;SDS011;7392;52.078;11.650;2022-07-05T14:01:08;0.88;;;0.80;;
14611;SDS011;7392;52.078;11.650;2022-07-05T14:03:36;0.80;;;0.80;;
14611;SDS011;7392;52.078;11.650;2022-07-05T14:06:04;0.88;;;0.70;;
14611;SDS011;7392;52.078;11.650;2022-07-05T14:08:33;1.88;;;0.75;;
14611;SDS011;7392;52.078;11.650;2022-07-05T14:11:01;0.80;;;0.77;;
14611;SDS011;7392;52.078;11.650;2022-07-05T14:13:30;1.48;;;0.80;;
14611;SDS011;7392;52.078;11.650;2022-07-05T14:15:57;1.02;;;0.70;;
14611;SDS011;7392;52.078;11.650;2022-07-05T14:18:25;1.23;;;0.90;;
14611;SDS011;7392;52.078;11.650;2022-07-05T14:20:53;0.82;;;0.80;;
14611;SDS011;7392;52.078;11.650;2022-07-05T14:23:21;1.55;;;0.95;;
14611;SDS011;7392;52.078;11.650;2022-07-05T14:25:51;0.85;;;0.77;;
14611;SDS011;7392;52.078;11.650;2022-07-05T14:28:19;2.17;;;0.93;;
14611;SDS011;7392;52.078;11.650;2022-07-05T14:30:47;1.45;;;0.77;;
14611;SDS011;7392;52.078;11.650;2022-07-05T14:33:15;0.68;;;0.68;;
14611;SDS011;7392;52.078;11.650;2022-07-05T14:35:45;1.08;;;0.93;;
14611;SDS011;7392;52.078;11.650;2022-07-05T14:38:13;0.77;;;0.77;;
14611;SDS011;7392;52.078;11.650;2022-07-05T14:40:41;0.80;;;0.80;;
14611;SDS011;7392;52.078;11.650;2022-07-05T14:43:10;0.95;;;0.68;;
14611;SDS011;7392;52.078;11.650;2022-07-05T14:45:39;0.98;;;0.77;;
14611;SDS011;7392;52.078;11.650;2022-07-05T14:48:07;1.45;;;0.70;;
14611;SDS011;7392;52.078;11.650;2022-07-05T14:50:34;1.08;;;0.80;;
14611;SDS011;7392;52.078;11.650;2022-07-05T14:53:02;0.73;;;0.73;;
14611;SDS011;7392;52.078;11.650;2022-07-05T14:55:34;0.65;;;0.63;;
14611;SDS011;7392;52.078;11.650;2022-07-05T14:58:02;1.30;;;0.90;;
14611;SDS011;7392;52.078;11.650;2022-07-05T15:00:32;0.82;;;0.70;;
14611;SDS011;7392;52.078;11.650;2022-07-05T15:03:00;0.95;;;0.60;;
14611;SDS011;7392;52.078;11.650;2022-07-05T15:05:28;1.77;;;0.95;;
14611;SDS011;7392;52.078;11.650;2022-07-05T15:07:57;2.25;;;0.85;;
14611;SDS011;7392;52.078;11.650;2022-07-05T15:10:25;2.78;;;1.13;;
14611;SDS011;7392;52.078;11.650;2022-07-05T15:12:53;0.90;;;0.80;;
14611;SDS011;7392;52.078;11.650;2022-07-05T15:15:21;0.65;;;0.60;;
14611;SDS011;7392;52.078;11.650;2022-07-05T15:17:52;0.90;;;0.65;;
14611;SDS011;7392;52.078;11.650;2022-07-05T15:20:20;1.05;;;0.70;;
14611;SDS011;7392;52.078;11.650;2022-07-05T15:22:48;0.90;;;0.75;;
14611;SDS011;7392;52.078;11.650;2022-07-05T15:25:17;1.00;;;0.75;;
14611;SDS011;7392;52.078;11.650;2022-07-05T15:27:45;0.65;;;0.65;;